createdAt,value
2023-02-25T00:02:02.679Z,99234.00
2023-02-25T00:04:32.383Z,99235.78
2023-02-25T00:07:02.728Z,99240.13
2023-02-25T00:09:31.849Z,99233.22
2023-02-25T00:12:00.278Z,99237.53
2023-02-25T00:14:28.757Z,99234.94
2023-02-25T00:16:57.560Z,99237.53
2023-02-25T00:19:26.974Z,99224.53
2023-02-25T00:21:55.449Z,99228.81
2023-02-25T00:24:25.424Z,99227.06
2023-02-25T00:26:53.870Z,99229.66
2023-02-25T00:29:23.230Z,99225.28
2023-02-25T00:31:51.841Z,99223.53
2023-02-25T00:34:20.488Z,99228.72
2023-02-25T00:36:50.197Z,99229.53
2023-02-25T00:39:18.996Z,99216.59
2023-02-25T00:41:48.846Z,99215.84
2023-02-25T00:44:17.321Z,99215.75
2023-02-25T00:46:45.889Z,99217.50
2023-02-25T00:49:23.929Z,99213.19
2023-02-25T00:51:58.033Z,99215.00
2023-02-25T00:54:28.551Z,99214.16
2023-02-25T00:56:58.781Z,99217.59
2023-02-25T00:59:27.361Z,99218.47
2023-02-25T01:01:56.065Z,99221.88
2023-02-25T01:04:24.979Z,99211.53
2023-02-25T01:06:55.059Z,99218.47
2023-02-25T01:09:23.819Z,99218.47
2023-02-25T01:11:52.662Z,99223.53
2023-02-25T01:14:24.042Z,99219.13
2023-02-25T01:16:56.193Z,99226.00
2023-02-25T01:19:26.286Z,99225.94
2023-02-25T01:21:57.260Z,99232.91
2023-02-25T01:24:29.266Z,99234.56
2023-02-25T01:26:59.829Z,99228.59
2023-02-25T01:29:31.662Z,99237.16
2023-02-25T01:32:01.959Z,99237.16
2023-02-25T01:34:31.766Z,99237.16
2023-02-25T01:37:03.654Z,99242.34
2023-02-25T01:39:33.250Z,99225.94
2023-02-25T01:42:05.066Z,99234.66
2023-02-25T01:44:40.082Z,99235.53
2023-02-25T01:47:10.131Z,99236.34
2023-02-25T01:49:42.175Z,99233.69
2023-02-25T01:52:14.679Z,99242.31
2023-02-25T01:54:45.122Z,99231.94
2023-02-25T01:57:16.297Z,99238.81
2023-02-25T01:59:47.959Z,99237.94
2023-02-25T02:02:19.689Z,99235.31
2023-02-25T02:04:51.170Z,99228.34
2023-02-25T02:07:24.644Z,99228.28
2023-02-25T02:09:56.912Z,99236.94
2023-02-25T02:12:26.893Z,99232.56
2023-02-25T02:15:00.605Z,99238.56
2023-02-25T02:17:34.772Z,99233.41
2023-02-25T02:20:13.084Z,99226.47
2023-02-25T02:22:52.346Z,99232.53
2023-02-25T02:25:51.561Z,99242.88
2023-02-25T02:28:58.333Z,99243.81
2023-02-25T02:31:42.757Z,99239.44
2023-02-25T02:34:26.647Z,99232.63
2023-02-25T02:37:06.673Z,99233.50
2023-02-25T02:39:48.025Z,99229.22
2023-02-25T02:42:27.336Z,99230.13
2023-02-25T02:45:02.990Z,99224.13
2023-02-25T02:47:36.227Z,99229.34
2023-02-25T02:50:09.086Z,99223.28
2023-02-25T02:52:42.602Z,99223.28
2023-02-25T02:55:22.222Z,99228.41
2023-02-25T02:57:56.721Z,99230.13
2023-02-25T03:00:29.057Z,99233.50
2023-02-25T03:03:06.599Z,99230.88
2023-02-25T03:05:38.167Z,99236.06
2023-02-25T03:08:11.848Z,99235.22
2023-02-25T03:10:40.400Z,99234.34
2023-02-25T03:13:08.882Z,99226.59
2023-02-25T03:15:40.586Z,99230.13
2023-02-25T03:18:19.279Z,99231.75
2023-02-25T03:20:50.373Z,99226.59
2023-02-25T03:23:21.992Z,99242.13
2023-02-25T03:25:57.778Z,99232.56
2023-02-25T03:28:31.765Z,99241.16
2023-02-25T03:31:07.633Z,99248.94
2023-02-25T03:33:47.841Z,99245.47
2023-02-25T03:36:22.756Z,99250.63
2023-02-25T03:38:57.173Z,99251.44
2023-02-25T03:41:35.432Z,99249.75
2023-02-25T03:44:07.996Z,99252.34
2023-02-25T03:46:38.116Z,99252.34
2023-02-25T03:49:11.209Z,99254.09
2023-02-25T03:51:42.575Z,99253.25
2023-02-25T03:54:11.251Z,99257.53
2023-02-25T03:56:44.722Z,99255.84
2023-02-25T03:59:13.504Z,99258.44
2023-02-25T04:01:45.839Z,99256.75
2023-02-25T04:04:15.717Z,99260.22
2023-02-25T04:06:44.268Z,99264.53
2023-02-25T04:09:12.861Z,99265.41
2023-02-25T04:11:41.410Z,99268.00
2023-02-25T04:14:09.934Z,99262.81
2023-02-25T04:16:38.433Z,99268.00
2023-02-25T04:19:06.931Z,99280.97
2023-02-25T04:21:37.989Z,99280.09
2023-02-25T04:24:08.115Z,99282.69
2023-02-25T04:26:37.245Z,99286.16
2023-02-25T04:29:05.878Z,99287.06
2023-02-25T04:31:34.794Z,99285.28
2023-02-25T04:34:03.324Z,99283.53
2023-02-25T04:36:33.602Z,99283.53
2023-02-25T04:39:05.981Z,99280.94
2023-02-25T04:41:36.804Z,99274.03
2023-02-25T04:44:06.576Z,99284.41
2023-02-25T04:46:37.351Z,99281.88
2023-02-25T04:49:07.101Z,99276.69
2023-02-25T04:51:38.617Z,99284.47
2023-02-25T04:54:08.683Z,99272.44
2023-02-25T04:56:37.878Z,99272.44
2023-02-25T04:59:07.424Z,99274.16
2023-02-25T05:01:35.904Z,99283.63
2023-02-25T05:04:04.707Z,99286.28
2023-02-25T05:06:33.461Z,99286.28
2023-02-25T05:09:02.184Z,99275.94
2023-02-25T05:11:32.064Z,99280.22
2023-02-25T05:14:00.608Z,99275.03
2023-02-25T05:16:29.212Z,99275.03
2023-02-25T05:18:57.790Z,99274.16
2023-02-25T05:21:29.381Z,99271.56
2023-02-25T05:23:57.860Z,99260.28
2023-02-25T05:26:26.656Z,99268.03
2023-02-25T05:28:58.734Z,99268.94
2023-02-25T05:31:27.468Z,99273.28
2023-02-25T05:33:55.967Z,99279.34
2023-02-25T05:36:27.886Z,99283.63
2023-02-25T05:39:02.678Z,99284.50
2023-02-25T05:41:31.640Z,99282.69
2023-02-25T05:44:01.455Z,99285.28
2023-02-25T05:46:29.957Z,99280.09
2023-02-25T05:48:58.585Z,99268.03
2023-02-25T05:51:27.142Z,99280.97
2023-02-25T05:53:55.626Z,99279.22
2023-02-25T05:56:28.850Z,99279.97
2023-02-25T05:58:58.545Z,99289.34
2023-02-25T06:01:29.519Z,99296.19
2023-02-25T06:03:59.504Z,99297.03
2023-02-25T06:06:30.005Z,99300.38
2023-02-25T06:08:59.085Z,99296.16
2023-02-25T06:11:30.550Z,99296.16
2023-02-25T06:14:00.203Z,99280.63
2023-02-25T06:16:32.240Z,99287.50
2023-02-25T06:19:02.586Z,99297.84
2023-02-25T06:21:31.367Z,99300.50
2023-02-25T06:24:00.375Z,99297.03
2023-02-25T06:26:29.075Z,99298.78
2023-02-25T06:28:58.026Z,99318.69
2023-02-25T06:31:26.631Z,99316.09
2023-02-25T06:33:56.624Z,99317.84
2023-02-25T06:36:25.374Z,99321.38
2023-02-25T06:38:54.120Z,99317.84
2023-02-25T06:41:23.925Z,99328.19
2023-02-25T06:43:52.939Z,99328.19
2023-02-25T06:46:24.540Z,99335.16
2023-02-25T06:48:53.386Z,99334.25
2023-02-25T06:51:23.326Z,99335.16
2023-02-25T06:53:53.114Z,99335.19
2023-02-25T06:56:22.636Z,99337.78
2023-02-25T06:58:52.546Z,99336.97
2023-02-25T07:01:21.176Z,99342.16
2023-02-25T07:03:50.825Z,99335.28
2023-02-25T07:06:19.444Z,99342.19
2023-02-25T07:08:49.249Z,99353.44
2023-02-25T07:11:29.593Z,99361.19
2023-02-25T07:13:58.218Z,99357.72
2023-02-25T07:16:26.814Z,99356.94
2023-02-25T07:18:55.371Z,99363.78
2023-02-25T07:21:24.213Z,99369.13
2023-02-25T07:23:53.976Z,99363.09
2023-02-25T07:26:22.815Z,99345.88
2023-02-25T07:28:51.589Z,99346.00
2023-02-25T07:31:22.263Z,99350.34
2023-02-25T07:33:51.083Z,99349.53
2023-02-25T07:36:19.918Z,99343.53
2023-02-25T07:38:49.433Z,99348.91
2023-02-25T07:41:20.559Z,99351.53
2023-02-25T07:43:49.120Z,99356.84
2023-02-25T07:46:17.712Z,99356.03
2023-02-25T07:48:46.200Z,99362.16
2023-02-25T07:51:18.494Z,99352.75
2023-02-25T07:53:47.099Z,99363.13
2023-02-25T07:56:16.458Z,99366.59
2023-02-25T07:58:46.467Z,99367.47
2023-02-25T08:01:26.180Z,99371.00
2023-02-25T08:03:57.676Z,99371.00
2023-02-25T08:06:27.569Z,99375.34
2023-02-25T08:08:56.326Z,99371.88
2023-02-25T08:11:27.364Z,99374.47
2023-02-25T08:13:57.162Z,99373.63
2023-02-25T08:16:25.595Z,99377.94
2023-02-25T08:18:54.910Z,99388.28
2023-02-25T08:21:24.638Z,99383.06
2023-02-25T08:23:54.469Z,99384.75
2023-02-25T08:26:23.858Z,99389.03
2023-02-25T08:28:52.668Z,99390.75
2023-02-25T08:31:23.253Z,99395.09
2023-02-25T08:33:53.210Z,99394.22
2023-02-25T08:36:24.091Z,99401.13
2023-02-25T08:38:52.929Z,99410.53
2023-02-25T08:41:23.562Z,99414.81
2023-02-25T08:43:54.648Z,99419.03
2023-02-25T08:46:26.178Z,99410.41
2023-02-25T08:48:55.956Z,99410.41
2023-02-25T08:51:33.833Z,99413.03
2023-02-25T08:54:04.437Z,99408.88
2023-02-25T08:56:33.385Z,99400.28
2023-02-25T08:59:02.378Z,99397.84
2023-02-25T09:01:44.760Z,99405.66
2023-02-25T09:04:14.513Z,99418.72
2023-02-25T09:06:43.074Z,99411.91
2023-02-25T09:09:13.348Z,99402.44
2023-02-25T09:11:42.294Z,99407.78
2023-02-25T09:14:11.579Z,99429.53
2023-02-25T09:16:41.925Z,99428.03
2023-02-25T09:19:10.860Z,99435.16
2023-02-25T09:21:40.393Z,99434.50
2023-02-25T09:24:09.809Z,99433.88
2023-02-25T09:26:38.345Z,99430.56
2023-02-25T09:29:08.117Z,99429.94
2023-02-25T09:31:37.732Z,99434.53
2023-02-25T09:34:10.627Z,99432.19
2023-02-25T09:36:39.118Z,99436.72
2023-02-25T09:39:10.404Z,99437.72
2023-02-25T09:41:46.172Z,99442.13
2023-02-25T09:44:17.627Z,99444.91
2023-02-25T09:46:50.349Z,99442.41
2023-02-25T09:49:27.094Z,99450.34
2023-02-25T09:52:02.416Z,99454.00
2023-02-25T09:54:35.951Z,99460.94
2023-02-25T09:57:07.667Z,99467.97
2023-02-25T09:59:36.156Z,99483.53
2023-02-25T10:02:28.509Z,99486.75
2023-02-25T10:05:10.305Z,99483.22
2023-02-25T10:07:50.287Z,99489.06
2023-02-25T10:10:24.741Z,99497.53
2023-02-25T10:13:03.044Z,99510.31
2023-02-25T10:15:52.372Z,99523.16
2023-02-25T10:18:43.993Z,99527.84
2023-02-25T10:21:25.196Z,99534.97
2023-02-25T10:24:10.629Z,99543.19
2023-02-25T10:26:43.443Z,99529.03
2023-02-25T10:29:18.149Z,99532.19
2023-02-25T10:31:46.704Z,99528.50
2023-02-25T10:34:22.462Z,99543.94
2023-02-25T10:36:56.509Z,99530.81
2023-02-25T10:39:26.596Z,99535.13
2023-02-25T10:41:55.634Z,99544.72
2023-02-25T10:44:24.147Z,99542.41
2023-02-25T10:46:56.772Z,99549.56
2023-02-25T10:49:27.960Z,99539.41
2023-02-25T10:52:03.330Z,99543.06
2023-02-25T10:54:33.459Z,99551.91
2023-02-25T10:57:08.479Z,99554.72
2023-02-25T10:59:39.345Z,99554.16
2023-02-25T11:02:23.430Z,99551.03
2023-02-25T11:04:53.331Z,99560.72
2023-02-25T11:07:34.258Z,99558.13
2023-02-25T11:10:17.570Z,99547.00
2023-02-25T11:12:48.302Z,99541.19
2023-02-25T11:15:43.602Z,99551.00
2023-02-25T11:18:20.985Z,99545.34
2023-02-25T11:20:53.017Z,99551.66
2023-02-25T11:23:26.564Z,99545.81
2023-02-25T11:25:57.509Z,99545.25
2023-02-25T11:28:32.397Z,99545.44
2023-02-25T11:31:14.043Z,99545.66
2023-02-25T11:33:46.936Z,99544.09
2023-02-25T11:36:23.490Z,99551.97
2023-02-25T11:39:09.237Z,99536.53
2023-02-25T11:41:37.728Z,99544.38
2023-02-25T11:44:21.492Z,99535.84
2023-02-25T11:47:30.376Z,99536.75
2023-02-25T11:50:13.427Z,99544.81
2023-02-25T11:52:45.381Z,99541.59
2023-02-25T11:55:31.515Z,99547.97
2023-02-25T11:58:07.452Z,99538.81
2023-02-25T12:00:45.025Z,99544.44
2023-02-25T12:03:47.290Z,99544.91
2023-02-25T12:06:33.706Z,99541.00
2023-02-25T12:09:24.633Z,99536.19
2023-02-25T12:12:39.569Z,99535.94
2023-02-25T12:15:34.199Z,99539.75
2023-02-25T12:18:53.852Z,99582.03
2023-02-25T12:22:01.955Z,99577.63
2023-02-25T12:24:43.483Z,99579.25
2023-02-25T12:27:43.515Z,99579.47
2023-02-25T12:30:57.185Z,99572.78
2023-02-25T12:33:53.176Z,99579.41
2023-02-25T12:36:35.575Z,99592.19
2023-02-25T12:39:21.790Z,99584.41
2023-02-25T12:41:58.306Z,99575.75
2023-02-25T12:45:03.668Z,99581.00
2023-02-25T12:47:45.245Z,99581.13
2023-02-25T12:50:24.501Z,99571.88
2023-02-25T12:53:07.341Z,99576.56
2023-02-25T12:56:00.380Z,99574.31
2023-02-25T12:58:41.520Z,99566.81
2023-02-25T13:01:50.554Z,99560.47
2023-02-25T13:04:45.149Z,99564.72
2023-02-25T13:07:36.835Z,99566.91
2023-02-25T13:10:18.087Z,99574.88
2023-02-25T13:13:02.724Z,99579.97
2023-02-25T13:15:43.463Z,99591.81
2023-02-25T13:18:25.079Z,99580.47
2023-02-25T13:21:30.991Z,99591.03
2023-02-25T13:24:20.136Z,99594.00
2023-02-25T13:27:18.611Z,99585.78
2023-02-25T13:30:07.127Z,99586.28
2023-02-25T13:32:43.087Z,99576.22
2023-02-25T13:35:26.045Z,99594.13
2023-02-25T13:38:09.733Z,99598.75
2023-02-25T13:40:51.745Z,99605.75
2023-02-25T13:44:01.866Z,99604.09
2023-02-25T13:47:00.294Z,99609.63
2023-02-25T13:49:52.975Z,99612.78
2023-02-25T13:52:55.342Z,99618.69
2023-02-25T13:55:59.240Z,99614.88
2023-02-25T13:58:42.464Z,99616.88
2023-02-25T14:01:23.783Z,99616.69
2023-02-25T14:04:36.127Z,99624.38
2023-02-25T14:07:20.589Z,99623.91
2023-02-25T14:10:01.472Z,99629.50
2023-02-25T14:12:45.205Z,99629.09
2023-02-25T14:15:22.752Z,99636.44
2023-02-25T14:18:07.831Z,99635.63
2023-02-25T14:20:45.172Z,99634.09
2023-02-25T14:23:19.570Z,99636.28
2023-02-25T14:26:14.620Z,99633.38
2023-02-25T14:28:53.670Z,99628.63
2023-02-25T14:31:33.486Z,99634.38
2023-02-25T14:34:23.128Z,99640.03
2023-02-25T14:37:09.454Z,99634.38
2023-02-25T14:39:50.314Z,99633.75
2023-02-25T14:42:41.573Z,99643.38
2023-02-25T14:45:21.499Z,99654.66
2023-02-25T14:47:58.753Z,99661.56
2023-02-25T14:50:32.320Z,99663.19
2023-02-25T14:53:20.980Z,99671.25
2023-02-25T14:56:21.692Z,99666.66
2023-02-25T14:59:02.226Z,99668.06
2023-02-25T15:01:48.242Z,99676.34
2023-02-25T15:04:49.968Z,99679.00
2023-02-25T15:07:41.815Z,99683.25
2023-02-25T15:10:25.864Z,99682.13
2023-02-25T15:13:14.274Z,99678.56
2023-02-25T15:16:17.164Z,99677.63
2023-02-25T15:19:17.053Z,99679.59
2023-02-25T15:21:48.429Z,99677.19
2023-02-25T15:24:38.706Z,99678.44
2023-02-25T15:27:40.401Z,99678.69
2023-02-25T15:30:10.371Z,99689.28
2023-02-25T15:33:12.700Z,99709.16
2023-02-25T15:35:59.076Z,99703.88
2023-02-25T15:38:42.085Z,99710.16
2023-02-25T15:41:46.069Z,99709.22
2023-02-25T15:44:37.802Z,99712.28
2023-02-25T15:47:34.356Z,99707.81
2023-02-25T15:50:04.881Z,99714.50
2023-02-25T15:52:55.441Z,99714.16
2023-02-25T15:55:40.537Z,99729.34
2023-02-25T15:58:26.445Z,99729.63
2023-02-25T16:00:55.400Z,99736.13
2023-02-25T16:03:39.345Z,99734.81
2023-02-25T16:06:14.786Z,99744.09
2023-02-25T16:08:50.335Z,99755.78
2023-02-25T16:11:36.327Z,99758.75
2023-02-25T16:14:08.085Z,99755.53
2023-02-25T16:16:40.683Z,99765.31
2023-02-25T16:19:15.364Z,99772.59
2023-02-25T16:21:46.761Z,99773.00
2023-02-25T16:24:15.441Z,99779.53
2023-02-25T16:26:49.989Z,99786.06
2023-02-25T16:29:37.987Z,99790.72
2023-02-25T16:32:13.446Z,99797.19
2023-02-25T16:34:51.563Z,99796.78
2023-02-25T16:37:30.004Z,99794.47
2023-02-25T16:39:59.407Z,99806.25
2023-02-25T16:42:28.075Z,99809.44
2023-02-25T16:45:00.396Z,99814.38
2023-02-25T16:47:30.537Z,99825.41
2023-02-25T16:50:02.265Z,99820.56
2023-02-25T16:52:35.842Z,99829.69
2023-02-25T16:55:10.369Z,99829.38
2023-02-25T16:57:40.775Z,99844.69
2023-02-25T17:00:17.102Z,99839.31
2023-02-25T17:02:48.400Z,99842.53
2023-02-25T17:05:25.538Z,99847.53
2023-02-25T17:08:01.195Z,99855.09
2023-02-25T17:10:33.672Z,99854.06
2023-02-25T17:13:05.238Z,99864.31
2023-02-25T17:15:37.896Z,99860.63
2023-02-25T17:18:11.304Z,99865.50
2023-02-25T17:20:41.516Z,99882.47
2023-02-25T17:23:14.917Z,99874.34
2023-02-25T17:27:12.583Z,99880.91
2023-02-25T17:29:41.236Z,99880.66
2023-02-25T17:32:20.205Z,99878.72
2023-02-25T17:34:50.134Z,99888.88
2023-02-25T17:37:19.650Z,99892.22
2023-02-25T17:39:48.856Z,99893.78
2023-02-25T17:42:33.940Z,99897.88
2023-02-25T17:45:02.838Z,99895.94
2023-02-25T17:47:33.651Z,99903.50
2023-02-25T17:50:21.171Z,99901.44
2023-02-25T17:52:50.310Z,99902.84
2023-02-25T17:55:24.950Z,99919.72
2023-02-25T17:57:58.988Z,99916.97
2023-02-25T18:00:32.321Z,99919.47
2023-02-25T18:03:17.937Z,99932.25
2023-02-25T18:05:52.121Z,99924.97
2023-02-25T18:08:23.617Z,99930.72
2023-02-25T18:10:55.052Z,99930.53
2023-02-25T18:13:35.209Z,99940.66
2023-02-25T18:16:32.062Z,99939.59
2023-02-25T18:19:01.440Z,99947.13
2023-02-25T18:21:30.220Z,99953.03
2023-02-25T18:24:00.334Z,99956.44
2023-02-25T18:26:28.832Z,99956.22
2023-02-25T18:28:58.651Z,99965.69
2023-02-25T18:31:27.405Z,99969.00
2023-02-25T18:33:56.084Z,99969.72
2023-02-25T18:36:27.840Z,99979.94
2023-02-25T18:39:01.704Z,99988.34
2023-02-25T18:41:30.181Z,99981.94
2023-02-25T18:44:01.393Z,99986.09
2023-02-25T18:46:30.698Z,99987.66
2023-02-25T18:48:59.251Z,99990.03
2023-02-25T18:51:27.976Z,99995.22
2023-02-25T18:53:56.404Z,99992.38
2023-02-25T18:56:25.196Z,99987.06
2023-02-25T18:58:54.705Z,99999.00
2023-02-25T19:01:27.310Z,100004.03
2023-02-25T19:03:59.861Z,100004.75
2023-02-25T19:06:29.133Z,99997.72
2023-02-25T19:08:57.644Z,100008.81
2023-02-25T19:11:27.945Z,100010.41
2023-02-25T19:13:56.525Z,100011.06
2023-02-25T19:16:26.701Z,100008.28
2023-02-25T19:18:55.361Z,100014.13
2023-02-25T19:21:24.015Z,100024.13
2023-02-25T19:23:53.584Z,100022.19
2023-02-25T19:26:22.644Z,100019.34
2023-02-25T19:28:51.271Z,100015.69
2023-02-25T19:31:20.482Z,100015.38
2023-02-25T19:33:50.381Z,100028.91
2023-02-25T19:36:18.961Z,100020.84
2023-02-25T19:38:47.564Z,100023.88
2023-02-25T19:41:16.017Z,100025.38
2023-02-25T19:43:44.709Z,100034.56
2023-02-25T19:46:17.100Z,100041.28
2023-02-25T19:48:45.711Z,100039.25
2023-02-25T19:51:15.594Z,100038.88
2023-02-25T19:53:45.563Z,100042.00
2023-02-25T19:56:14.073Z,100045.19
2023-02-25T19:58:42.657Z,100052.78
2023-02-25T20:01:11.199Z,100055.19
2023-02-25T20:03:39.882Z,100061.06
2023-02-25T20:06:12.945Z,100063.47
2023-02-25T20:08:44.114Z,100071.13
2023-02-25T20:11:13.280Z,100067.38
2023-02-25T20:13:41.725Z,100074.16
2023-02-25T20:16:10.205Z,100073.97
2023-02-25T20:18:38.938Z,100075.38
2023-02-25T20:21:07.825Z,100076.19
2023-02-25T20:23:37.821Z,100082.97
2023-02-25T20:26:12.695Z,100078.50
2023-02-25T20:28:41.823Z,100080.00
2023-02-25T20:31:12.557Z,100084.16
2023-02-25T20:33:41.689Z,100077.13
2023-02-25T20:36:19.644Z,100088.16
2023-02-25T20:38:58.786Z,100094.03
2023-02-25T20:41:28.869Z,100095.56
2023-02-25T20:43:57.495Z,100094.56
2023-02-25T20:46:28.642Z,100094.38
2023-02-25T20:48:57.695Z,100090.81
2023-02-25T20:51:26.562Z,100099.16
2023-02-25T20:53:55.405Z,100103.25
2023-02-25T20:56:26.483Z,100103.97
2023-02-25T20:58:56.396Z,100106.34
2023-02-25T21:01:27.521Z,100105.38
2023-02-25T21:03:55.954Z,100106.13
2023-02-25T21:06:26.607Z,100101.78
2023-02-25T21:08:55.850Z,100110.34
2023-02-25T21:11:25.516Z,100105.97
2023-02-25T21:13:54.619Z,100111.94
2023-02-25T21:16:25.297Z,100120.44
2023-02-25T21:18:54.865Z,100129.88
2023-02-25T21:21:23.407Z,100124.72
2023-02-25T21:23:52.556Z,100127.22
2023-02-25T21:26:21.047Z,100126.22
2023-02-25T21:28:49.447Z,100132.16
2023-02-25T21:31:18.432Z,100136.38
2023-02-25T21:33:48.364Z,100138.03
2023-02-25T21:36:16.829Z,100134.47
2023-02-25T21:38:45.312Z,100132.69
2023-02-25T21:41:15.430Z,100136.06
2023-02-25T21:43:43.995Z,100138.53
2023-02-25T21:46:16.199Z,100140.13
2023-02-25T21:48:46.822Z,100142.63
2023-02-25T21:51:18.987Z,100154.53
2023-02-25T21:53:47.628Z,100141.53
2023-02-25T21:56:18.316Z,100148.47
2023-02-25T21:58:47.394Z,100133.78
2023-02-25T22:01:18.150Z,100139.81
2023-02-25T22:03:47.361Z,100141.53
2023-02-25T22:06:17.881Z,100141.53
2023-02-25T22:08:46.813Z,100151.75
2023-02-25T22:11:16.728Z,100148.25
2023-02-25T22:13:45.160Z,100148.25
2023-02-25T22:16:14.405Z,100154.22
2023-02-25T22:18:43.508Z,100155.03
2023-02-25T22:21:13.764Z,100150.66
2023-02-25T22:23:44.313Z,100156.63
2023-02-25T22:26:15.537Z,100158.31
2023-02-25T22:28:44.795Z,100154.81
2023-02-25T22:31:14.859Z,100161.59
2023-02-25T22:33:44.139Z,100171.91
2023-02-25T22:36:13.971Z,100168.31
2023-02-25T22:38:45.019Z,100179.41
2023-02-25T22:41:15.323Z,100176.66
2023-02-25T22:43:44.229Z,100173.06
2023-02-25T22:46:15.014Z,100172.88
2023-02-25T22:48:45.375Z,100173.69
2023-02-25T22:51:15.061Z,100174.47
2023-02-25T22:53:45.205Z,100185.66
2023-02-25T22:56:13.618Z,100177.84
2023-02-25T22:58:42.080Z,100185.47
2023-02-25T23:01:11.666Z,100192.19
2023-02-25T23:03:40.682Z,100184.41
2023-02-25T23:06:09.181Z,100190.31
2023-02-25T23:08:37.847Z,100185.09
2023-02-25T23:11:14.331Z,100188.44
2023-02-25T23:13:47.400Z,100185.78
2023-02-25T23:16:16.616Z,100182.22
2023-02-25T23:18:45.816Z,100184.66
2023-02-25T23:21:19.089Z,100196.56
2023-02-25T23:23:49.143Z,100193.91
2023-02-25T23:26:21.081Z,100190.31
2023-02-25T23:28:50.183Z,100193.69
2023-02-25T23:31:19.848Z,100194.59
2023-02-25T23:33:48.680Z,100198.84
2023-02-25T23:36:17.228Z,100205.59
2023-02-25T23:38:45.645Z,100210.75
2023-02-25T23:41:14.243Z,100205.59
2023-02-25T23:43:44.046Z,100203.00
2023-02-25T23:46:12.569Z,100207.16
2023-02-25T23:48:40.933Z,100214.09
2023-02-25T23:51:09.720Z,100212.31
2023-02-25T23:53:38.235Z,100211.44
2023-02-25T23:56:07.823Z,100214.78
2023-02-25T23:58:36.928Z,100220.75
